Time;durP1;ratioP1;P1;durP2;ratioP2;P2;SDS_P1;SDS_P2;PMS_P1;PMS_P2;Temp;Humidity;BMP_temperature;BMP_pressure;BME280_temperature;BME280_humidity;BME280_pressure;Samples;Min_cycle;Max_cycle;Signal;HPM_P1;HPM_P2
2023/12/14 00:01:51;;;;;;;25.48;23.30;;;5.20;99.90;;;;;;4950920;28;20526;-75
2023/12/14 00:04:16;;;;;;;23.42;21.52;;;5.10;99.90;;;;;;4939301;28;20583;-75
2023/12/14 00:06:42;;;;;;;24.23;22.40;;;5.10;99.90;;;;;;4947631;28;20117;-75
2023/12/14 00:09:08;;;;;;;24.42;22.45;;;5.10;99.90;;;;;;4954205;28;20070;-76
2023/12/14 00:11:40;;;;;;;23.58;21.67;;;5.10;99.90;;;;;;4952301;28;20039;-75
2023/12/14 00:14:06;;;;;;;22.73;20.92;;;5.10;99.90;;;;;;4939503;28;20409;-76
2023/12/14 00:16:32;;;;;;;21.73;20.02;;;5.10;99.90;;;;;;4939466;28;20042;-76
2023/12/14 00:18:58;;;;;;;23.17;21.27;;;5.00;99.90;;;;;;4939397;28;20424;-75
2023/12/14 00:21:23;;;;;;;22.35;20.55;;;5.00;99.90;;;;;;4939159;28;20382;-75
2023/12/14 00:23:49;;;;;;;23.08;21.17;;;5.00;99.90;;;;;;4938934;28;20142;-75
2023/12/14 00:26:15;;;;;;;23.67;21.60;;;5.10;99.90;;;;;;4945704;29;20379;-75
2023/12/14 00:28:40;;;;;;;24.95;22.95;;;5.00;99.90;;;;;;4921300;28;20047;-75
2023/12/14 00:31:06;;;;;;;23.25;21.30;;;5.00;99.90;;;;;;4941862;28;20047;-75
2023/12/14 00:33:32;;;;;;;24.70;22.63;;;5.10;99.90;;;;;;4955201;28;20082;-76
2023/12/14 00:35:57;;;;;;;22.25;20.45;;;5.10;99.90;;;;;;4958094;28;20047;-75
2023/12/14 00:38:23;;;;;;;21.88;20.08;;;5.10;99.90;;;;;;4938198;28;20489;-75
2023/12/14 00:40:49;;;;;;;22.10;20.20;;;5.10;99.90;;;;;;4953650;28;20081;-76
2023/12/14 00:43:14;;;;;;;20.60;18.90;;;5.10;99.90;;;;;;4940178;28;20046;-75
2023/12/14 00:45:41;;;;;;;20.58;18.77;;;5.00;99.90;;;;;;4942532;28;20078;-75
2023/12/14 00:48:07;;;;;;;20.70;19.00;;;5.10;99.90;;;;;;4942573;28;20050;-75
2023/12/14 00:50:33;;;;;;;21.52;19.65;;;5.10;99.90;;;;;;4942710;28;20043;-75
2023/12/14 00:52:58;;;;;;;21.88;20.17;;;5.10;99.90;;;;;;4935000;28;20474;-75
2023/12/14 00:55:24;;;;;;;22.50;20.70;;;5.00;99.90;;;;;;4958309;28;20034;-75
2023/12/14 00:57:50;;;;;;;21.65;19.88;;;5.00;99.90;;;;;;4943998;28;20051;-75
2023/12/14 01:00:16;;;;;;;23.30;21.30;;;5.00;99.90;;;;;;4942460;28;20101;-75
2023/12/14 01:02:41;;;;;;;20.90;19.20;;;5.00;99.90;;;;;;4938667;28;20061;-75
2023/12/14 01:05:08;;;;;;;21.38;19.60;;;5.00;99.90;;;;;;4942184;28;20082;-75
2023/12/14 01:07:33;;;;;;;19.50;17.80;;;5.00;99.90;;;;;;4941399;28;20648;-76
2023/12/14 01:09:59;;;;;;;19.23;17.58;;;5.00;99.90;;;;;;4958250;28;20138;-75
2023/12/14 01:12:25;;;;;;;20.55;18.77;;;5.10;99.90;;;;;;4944626;29;20035;-75
2023/12/14 01:14:50;;;;;;;19.02;17.52;;;5.00;99.90;;;;;;4923142;29;20050;-75
2023/12/14 01:17:16;;;;;;;18.98;17.48;;;5.00;99.90;;;;;;4923101;29;20080;-75
2023/12/14 01:19:42;;;;;;;18.55;16.95;;;5.00;99.90;;;;;;4922905;29;20509;-77
2023/12/14 01:22:07;;;;;;;19.30;17.60;;;5.00;99.90;;;;;;4930251;28;20046;-75
2023/12/14 01:24:33;;;;;;;19.65;17.90;;;5.00;99.90;;;;;;4957681;28;20129;-75
2023/12/14 01:26:59;;;;;;;20.40;18.73;;;5.00;99.90;;;;;;4957831;28;20537;-75
2023/12/14 01:29:24;;;;;;;19.83;18.13;;;5.00;99.90;;;;;;4957595;28;20043;-75
2023/12/14 01:31:50;;;;;;;21.25;19.42;;;5.00;99.90;;;;;;4942327;28;20072;-75
2023/12/14 01:34:16;;;;;;;22.35;20.25;;;5.00;99.90;;;;;;4957199;28;20034;-75
2023/12/14 01:36:42;;;;;;;21.80;19.80;;;4.90;99.90;;;;;;4957563;28;20074;-75
2023/12/14 01:39:08;;;;;;;20.90;18.92;;;4.90;99.90;;;;;;4950386;28;20030;-75
2023/12/14 01:41:33;;;;;;;20.00;18.30;;;4.90;99.90;;;;;;4956384;28;20481;-75
2023/12/14 01:43:59;;;;;;;19.45;17.75;;;4.90;99.90;;;;;;4925910;28;20493;-75
2023/12/14 01:46:25;;;;;;;21.15;19.30;;;4.90;99.90;;;;;;4941499;28;20390;-75
2023/12/14 01:48:52;;;;;;;20.30;18.48;;;4.90;99.90;;;;;;4941462;28;20054;-76
2023/12/14 01:51:19;;;;;;;22.65;20.55;;;4.90;99.90;;;;;;4951635;28;20382;-75
2023/12/14 01:53:44;;;;;;;19.85;18.02;;;4.90;99.90;;;;;;4941345;28;20074;-75
2023/12/14 01:56:10;;;;;;;20.38;18.58;;;4.90;99.90;;;;;;4941750;28;20482;-75
2023/12/14 01:58:36;;;;;;;20.67;18.70;;;4.90;99.90;;;;;;4941310;28;20469;-75
2023/12/14 02:01:25;;;;;;;20.50;18.65;;;4.90;99.90;;;;;;4941142;28;20077;-75
2023/12/14 02:03:52;;;;;;;20.73;18.80;;;4.90;99.90;;;;;;4940158;28;20509;-75
2023/12/14 02:06:18;;;;;;;20.73;18.85;;;4.90;99.90;;;;;;4936177;28;20134;-75
2023/12/14 02:08:44;;;;;;;19.67;17.83;;;4.80;99.90;;;;;;4957119;28;20133;-75
2023/12/14 02:11:10;;;;;;;19.70;17.90;;;4.90;99.90;;;;;;4955569;28;20050;-75
2023/12/14 02:13:35;;;;;;;19.77;18.08;;;4.80;99.90;;;;;;4921788;29;20043;-75
2023/12/14 02:16:01;;;;;;;19.23;17.52;;;4.80;99.90;;;;;;4923354;29;20402;-74
2023/12/14 02:18:27;;;;;;;20.27;18.38;;;4.80;99.90;;;;;;4922077;28;20043;-75
2023/12/14 02:20:52;;;;;;;19.63;17.88;;;4.80;99.90;;;;;;4948255;28;20559;-75
2023/12/14 02:23:18;;;;;;;22.02;19.88;;;4.80;99.90;;;;;;4950324;28;20039;-75
2023/12/14 02:25:44;;;;;;;19.48;17.73;;;4.80;99.90;;;;;;4951636;28;20075;-75
2023/12/14 02:28:09;;;;;;;20.45;18.50;;;4.70;99.90;;;;;;4940766;28;20073;-75
2023/12/14 02:30:35;;;;;;;19.92;18.13;;;4.70;99.90;;;;;;4940533;28;20046;-75
2023/12/14 02:33:01;;;;;;;19.80;18.02;;;4.70;99.90;;;;;;4936132;28;20074;-75
2023/12/14 02:35:26;;;;;;;19.75;17.77;;;4.70;99.90;;;;;;4933302;28;20034;-75
2023/12/14 02:37:52;;;;;;;20.92;19.00;;;4.70;99.90;;;;;;4940716;28;20559;-76
2023/12/14 02:40:18;;;;;;;20.25;18.45;;;4.70;99.90;;;;;;4931841;29;20061;-75
2023/12/14 02:42:44;;;;;;;20.25;18.25;;;4.70;99.90;;;;;;4923597;28;20155;-75
2023/12/14 02:45:10;;;;;;;19.65;17.80;;;4.70;99.90;;;;;;4956216;28;20465;-75
2023/12/14 02:47:35;;;;;;;19.70;17.75;;;4.70;99.90;;;;;;4940304;28;20133;-75
2023/12/14 02:50:01;;;;;;;19.60;17.70;;;4.60;99.90;;;;;;4943296;28;20134;-75
2023/12/14 02:52:27;;;;;;;18.45;16.75;;;4.60;99.90;;;;;;4949314;28;20074;-75
2023/12/14 02:54:53;;;;;;;18.83;17.13;;;4.60;99.90;;;;;;4940083;28;20070;-75
2023/12/14 02:57:18;;;;;;;18.50;16.75;;;4.60;99.90;;;;;;4921493;29;20039;-77
2023/12/14 02:59:44;;;;;;;18.92;17.13;;;4.60;99.90;;;;;;4937035;28;20031;-75
2023/12/14 03:02:10;;;;;;;18.23;16.42;;;4.50;99.90;;;;;;4952229;28;20058;-75
2023/12/14 03:04:39;;;;;;;18.73;16.92;;;4.70;99.90;;;;;;4955942;28;20043;-75
2023/12/14 03:07:05;;;;;;;22.52;20.25;;;4.50;99.90;;;;;;4950049;28;20078;-75
2023/12/14 03:09:31;;;;;;;19.58;17.80;;;4.50;99.90;;;;;;4923193;28;20528;-76
2023/12/14 03:11:57;;;;;;;18.98;17.23;;;4.60;99.90;;;;;;4923736;29;20486;-75
2023/12/14 03:14:23;;;;;;;20.45;18.45;;;4.50;99.90;;;;;;4947030;28;20118;-75
2023/12/14 03:16:49;;;;;;;20.15;18.25;;;4.50;99.90;;;;;;4933104;28;20047;-75
2023/12/14 03:19:17;;;;;;;17.30;15.65;;;4.50;99.90;;;;;;4921021;28;20043;-75
2023/12/14 03:21:43;;;;;;;17.73;16.13;;;4.50;99.90;;;;;;4920895;29;20583;-76
2023/12/14 03:24:11;;;;;;;15.88;14.45;;;4.50;99.90;;;;;;4931977;28;20146;-75
2023/12/14 03:26:37;;;;;;;16.38;14.88;;;4.50;99.90;;;;;;4940070;28;20114;-75
2023/12/14 03:29:03;;;;;;;15.52;14.23;;;4.50;99.90;;;;;;4948136;28;20066;-75
2023/12/14 03:31:28;;;;;;;16.35;14.95;;;4.50;99.90;;;;;;4950964;28;20097;-75
2023/12/14 03:33:54;;;;;;;16.73;15.23;;;4.50;99.90;;;;;;4955939;28;20109;-76
2023/12/14 03:36:22;;;;;;;17.20;15.50;;;4.50;99.90;;;;;;4949481;28;20038;-76
2023/12/14 03:38:48;;;;;;;15.88;14.55;;;4.50;99.90;;;;;;4939947;28;20039;-75
2023/12/14 03:41:13;;;;;;;19.10;17.40;;;4.50;99.90;;;;;;4925413;28;20476;-75
2023/12/14 03:43:39;;;;;;;17.33;15.70;;;4.50;99.90;;;;;;4952998;28;20050;-75
2023/12/14 03:46:06;;;;;;;17.10;15.60;;;4.50;99.90;;;;;;4952658;28;20129;-75
2023/12/14 03:48:32;;;;;;;17.48;15.88;;;4.50;99.90;;;;;;4939708;28;20034;-75
2023/12/14 03:50:58;;;;;;;16.90;15.40;;;4.50;99.90;;;;;;4939570;28;20424;-75
2023/12/14 03:53:23;;;;;;;16.42;15.02;;;4.50;99.90;;;;;;4948410;28;20113;-75
2023/12/14 03:55:49;;;;;;;19.50;17.70;;;4.50;99.90;;;;;;4952882;28;20046;-75
2023/12/14 03:58:15;;;;;;;15.75;14.25;;;4.50;99.90;;;;;;4920652;29;20438;-75
2023/12/14 04:00:40;;;;;;;17.00;15.50;;;4.50;99.90;;;;;;4921173;29;20043;-76
2023/12/14 04:03:06;;;;;;;16.77;15.18;;;4.50;99.90;;;;;;4922352;28;20051;-75
2023/12/14 04:05:31;;;;;;;16.52;14.82;;;4.50;99.90;;;;;;4942324;28;20413;-75
2023/12/14 04:07:57;;;;;;;15.35;13.95;;;4.50;99.90;;;;;;4947368;28;20501;-76
2023/12/14 04:10:23;;;;;;;18.27;16.38;;;4.50;99.90;;;;;;4937293;28;20653;-76
2023/12/14 04:12:48;;;;;;;17.85;16.05;;;4.40;99.90;;;;;;4943095;28;20035;-75
2023/12/14 04:15:14;;;;;;;16.58;14.95;;;4.50;99.90;;;;;;4924185;29;20047;-75
2023/12/14 04:17:40;;;;;;;16.45;14.85;;;4.50;99.90;;;;;;4924369;28;20054;-75
2023/12/14 04:20:06;;;;;;;16.45;14.85;;;4.50;99.90;;;;;;4924276;29;20079;-75
2023/12/14 04:22:32;;;;;;;17.48;15.85;;;4.50;99.90;;;;;;4939651;28;20499;-75
2023/12/14 04:24:57;;;;;;;17.08;15.43;;;4.50;99.90;;;;;;4943808;28;20133;-76
2023/12/14 04:27:28;;;;;;;20.42;16.88;;;4.40;99.90;;;;;;4936194;28;20043;-75
2023/12/14 04:29:54;;;;;;;16.75;15.05;;;4.40;99.90;;;;;;4924541;29;20399;-76
2023/12/14 04:32:20;;;;;;;15.90;14.30;;;4.40;99.90;;;;;;4924182;29;20047;-75
2023/12/14 04:34:45;;;;;;;18.73;16.42;;;4.40;99.90;;;;;;4938914;28;20045;-75
2023/12/14 04:37:11;;;;;;;18.55;16.65;;;4.50;99.90;;;;;;4945509;28;20041;-76
2023/12/14 04:39:37;;;;;;;16.73;15.13;;;4.50;99.90;;;;;;4956274;28;20043;-75
2023/12/14 04:42:03;;;;;;;16.85;15.02;;;4.40;99.90;;;;;;4958964;28;20042;-75
2023/12/14 04:44:29;;;;;;;17.48;15.68;;;4.50;99.90;;;;;;4935359;29;20109;-75
2023/12/14 04:47:00;;;;;;;16.60;15.00;;;4.40;99.90;;;;;;4935460;28;20517;-75
2023/12/14 04:49:26;;;;;;;16.98;15.38;;;4.50;99.90;;;;;;4958682;28;20079;-76
2023/12/14 04:51:51;;;;;;;16.73;15.23;;;4.40;99.90;;;;;;4957302;28;20454;-75
2023/12/14 04:54:17;;;;;;;17.63;16.00;;;4.50;99.90;;;;;;4953320;28;20452;-75
2023/12/14 04:56:46;;;;;;;17.33;15.73;;;4.50;99.90;;;;;;4952523;28;20121;-75
2023/12/14 04:59:11;;;;;;;16.73;15.13;;;4.40;99.90;;;;;;4932075;29;20039;-75
2023/12/14 05:01:37;;;;;;;18.45;16.58;;;4.50;99.90;;;;;;4945280;28;20489;-75
2023/12/14 05:04:03;;;;;;;17.55;15.85;;;4.40;99.90;;;;;;4958752;28;20494;-75
2023/12/14 05:06:29;;;;;;;18.67;16.73;;;4.50;99.90;;;;;;4954296;28;20545;-76
2023/12/14 05:08:55;;;;;;;18.55;16.65;;;4.50;99.90;;;;;;4951659;28;20516;-75
2023/12/14 05:11:21;;;;;;;16.38;14.40;;;4.50;99.90;;;;;;4958306;28;20047;-76
2023/12/14 05:13:47;;;;;;;18.55;16.75;;;4.50;99.90;;;;;;4951338;28;20035;-76
2023/12/14 05:16:13;;;;;;;18.08;16.25;;;4.50;99.90;;;;;;4925662;28;20035;-75
2023/12/14 05:18:39;;;;;;;18.25;16.55;;;4.50;99.90;;;;;;4935766;29;20074;-75
2023/12/14 05:21:05;;;;;;;20.90;18.70;;;4.40;99.90;;;;;;4935596;28;20498;-75
2023/12/14 05:23:31;;;;;;;21.15;19.05;;;4.50;99.90;;;;;;4938701;28;20098;-76
2023/12/14 05:25:56;;;;;;;20.52;18.52;;;4.50;99.90;;;;;;4923423;28;20047;-75
2023/12/14 05:28:22;;;;;;;19.80;17.75;;;4.50;99.90;;;;;;4923520;29;20379;-75
2023/12/14 05:30:48;;;;;;;20.08;17.92;;;4.50;99.90;;;;;;4922911;29;20523;-75
2023/12/14 05:33:14;;;;;;;22.38;19.98;;;4.50;99.90;;;;;;4922917;29;20044;-75
2023/12/14 05:35:39;;;;;;;23.05;20.73;;;4.40;99.90;;;;;;4959843;28;20035;-75
2023/12/14 05:38:05;;;;;;;21.58;19.50;;;4.40;99.90;;;;;;4950804;28;20049;-76
2023/12/14 05:40:31;;;;;;;20.25;18.25;;;4.40;99.90;;;;;;4922689;28;20158;-76
2023/12/14 05:42:57;;;;;;;19.35;17.45;;;4.40;99.90;;;;;;4922926;29;20047;-76
2023/12/14 05:45:23;;;;;;;19.65;17.65;;;4.50;99.90;;;;;;4922868;29;20050;-75
2023/12/14 05:47:49;;;;;;;23.02;20.58;;;4.50;99.90;;;;;;4922397;28;20134;-76
2023/12/14 05:50:14;;;;;;;20.33;18.23;;;4.50;99.90;;;;;;4942960;28;20085;-75
2023/12/14 05:52:45;;;;;;;19.25;17.48;;;4.50;99.90;;;;;;4957812;28;20038;-76
2023/12/14 05:55:11;;;;;;;19.08;17.17;;;4.50;99.90;;;;;;4953042;28;20058;-75
2023/12/14 05:57:36;;;;;;;18.80;16.90;;;4.50;99.90;;;;;;4945776;28;20031;-75
2023/12/14 06:00:07;;;;;;;18.73;16.80;;;4.50;99.90;;;;;;5010017;22;20418;-79
2023/12/14 06:02:33;;;;;;;20.95;18.80;;;4.50;99.90;;;;;;4997136;28;20042;-79
2023/12/14 06:04:58;;;;;;;20.02;18.13;;;4.50;99.90;;;;;;4997976;28;20046;-79
2023/12/14 06:07:24;;;;;;;19.48;17.55;;;4.50;99.90;;;;;;5023461;28;20036;-79
2023/12/14 06:09:50;;;;;;;20.80;18.63;;;4.50;99.90;;;;;;5011645;28;20056;-79
2023/12/14 06:12:15;;;;;;;21.63;19.42;;;4.50;99.90;;;;;;4998813;28;20480;-81
2023/12/14 06:14:41;;;;;;;21.83;19.02;;;4.50;99.90;;;;;;4995769;28;20495;-79
2023/12/14 06:17:06;;;;;;;20.58;17.77;;;4.50;99.90;;;;;;5002720;28;20033;-81
2023/12/14 06:19:32;;;;;;;19.77;17.77;;;4.50;99.90;;;;;;5011761;28;20030;-82
2023/12/14 06:21:58;;;;;;;18.95;17.02;;;4.50;99.90;;;;;;5003190;28;20530;-82
2023/12/14 06:24:23;;;;;;;19.65;17.25;;;4.50;99.90;;;;;;4998805;28;20045;-82
2023/12/14 06:26:49;;;;;;;19.65;17.38;;;4.50;99.90;;;;;;4997930;28;20037;-80
2023/12/14 06:29:14;;;;;;;20.17;17.65;;;4.50;99.90;;;;;;4991621;28;20140;-80
2023/12/14 06:31:40;;;;;;;20.33;17.75;;;4.50;99.90;;;;;;5011498;28;20045;-80
2023/12/14 06:34:06;;;;;;;21.70;19.02;;;4.50;99.90;;;;;;5007411;28;20475;-81
2023/12/14 06:36:33;;;;;;;21.70;19.35;;;4.50;99.90;;;;;;5022140;28;20047;-80
2023/12/14 06:38:59;;;;;;;22.95;20.75;;;4.50;99.90;;;;;;5016594;28;20618;-79
2023/12/14 06:41:26;;;;;;;20.48;18.27;;;4.50;99.90;;;;;;5015004;28;20127;-79
2023/12/14 06:43:52;;;;;;;21.77;19.58;;;4.50;99.90;;;;;;5022388;28;20052;-80
2023/12/14 06:46:18;;;;;;;20.25;18.13;;;4.50;99.90;;;;;;5009627;28;20483;-80
2023/12/14 06:48:44;;;;;;;26.48;21.85;;;4.50;99.90;;;;;;5031247;28;20068;-80
2023/12/14 06:51:10;;;;;;;24.60;20.73;;;4.50;99.90;;;;;;5021512;28;20037;-79
2023/12/14 06:53:37;;;;;;;21.23;19.02;;;4.50;99.90;;;;;;5014773;28;20045;-80
2023/12/14 06:56:03;;;;;;;20.83;18.63;;;4.50;99.90;;;;;;5005841;28;20042;-82
2023/12/14 06:58:29;;;;;;;22.25;18.85;;;4.50;99.90;;;;;;5012340;28;20453;-80
2023/12/14 07:00:54;;;;;;;19.65;17.60;;;4.50;99.90;;;;;;4988614;28;20069;-82
2023/12/14 07:03:20;;;;;;;18.95;16.55;;;4.50;99.90;;;;;;5007358;28;20388;-81
2023/12/14 07:05:45;;;;;;;18.67;16.75;;;4.50;99.90;;;;;;4994843;28;20091;-81
2023/12/14 07:08:12;;;;;;;17.98;16.27;;;4.50;99.90;;;;;;4979293;28;20069;-80
2023/12/14 07:10:38;;;;;;;18.25;16.25;;;4.50;99.90;;;;;;5005470;28;20099;-83
2023/12/14 07:13:04;;;;;;;18.52;16.63;;;4.50;99.90;;;;;;5027594;28;20451;-81
2023/12/14 07:15:29;;;;;;;18.25;16.35;;;4.50;99.90;;;;;;5012745;28;20056;-84
2023/12/14 07:17:55;;;;;;;19.77;17.73;;;4.50;99.90;;;;;;4989445;28;20544;-83
2023/12/14 07:20:21;;;;;;;19.48;17.48;;;4.40;99.90;;;;;;4978576;28;20064;-84
2023/12/14 07:22:46;;;;;;;20.63;18.30;;;4.40;99.90;;;;;;4978488;28;20038;-84
2023/12/14 07:25:12;;;;;;;20.23;18.00;;;4.40;99.90;;;;;;4991287;28;20525;-83
2023/12/14 07:27:38;;;;;;;22.60;20.40;;;4.40;99.90;;;;;;5030750;28;20526;-84
2023/12/14 07:30:04;;;;;;;20.08;18.00;;;4.40;99.90;;;;;;5009406;28;20049;-84
2023/12/14 07:32:29;;;;;;;17.50;15.70;;;4.40;99.90;;;;;;5014512;28;20078;-84
2023/12/14 07:34:55;;;;;;;17.85;16.15;;;4.40;99.90;;;;;;5015029;28;20116;-84
2023/12/14 07:37:20;;;;;;;17.23;15.60;;;4.40;99.90;;;;;;5014449;28;20040;-84
2023/12/14 07:39:46;;;;;;;16.80;15.20;;;4.40;99.90;;;;;;5009132;28;20521;-84
2023/12/14 07:42:12;;;;;;;17.73;15.93;;;4.40;99.90;;;;;;5014337;28;20451;-84
2023/12/14 07:44:40;;;;;;;16.83;15.13;;;4.40;99.90;;;;;;5030537;28;20148;-84
2023/12/14 07:47:06;;;;;;;17.60;15.88;;;4.40;99.90;;;;;;5014241;28;20124;-84
2023/12/14 07:49:31;;;;;;;18.15;16.25;;;4.40;99.90;;;;;;5010242;28;20065;-83
2023/12/14 07:51:57;;;;;;;19.52;17.58;;;4.40;99.90;;;;;;5016219;28;20396;-84
2023/12/14 07:54:22;;;;;;;20.27;18.13;;;4.40;99.90;;;;;;5028768;28;20530;-84
2023/12/14 07:56:48;;;;;;;19.95;17.92;;;4.40;99.90;;;;;;5030222;28;20056;-84
2023/12/14 07:59:13;;;;;;;19.63;17.85;;;4.40;99.90;;;;;;4997600;28;20045;-84
2023/12/14 08:01:39;;;;;;;22.45;20.15;;;4.40;99.90;;;;;;5014144;28;20047;-84
2023/12/14 08:04:04;;;;;;;21.58;18.92;;;4.40;99.90;;;;;;4997790;28;20044;-84
2023/12/14 08:06:30;;;;;;;22.00;19.65;;;4.40;99.90;;;;;;5014289;28;20178;-84
2023/12/14 08:08:59;;;;;;;24.67;21.10;;;4.40;99.90;;;;;;5014056;28;20045;-83
2023/12/14 08:11:25;;;;;;;19.65;17.75;;;4.40;99.90;;;;;;5030370;28;20052;-84
2023/12/14 08:13:50;;;;;;;19.48;17.48;;;4.40;99.90;;;;;;5013794;28;20495;-84
2023/12/14 08:16:17;;;;;;;20.55;18.48;;;4.40;99.90;;;;;;5017336;28;20077;-84
2023/12/14 08:18:45;;;;;;;22.90;20.42;;;4.40;99.90;;;;;;5026338;28;20033;-84
2023/12/14 08:21:11;;;;;;;20.25;18.25;;;4.40;99.90;;;;;;5013916;28;20124;-84
2023/12/14 08:23:37;;;;;;;18.92;17.05;;;4.40;99.90;;;;;;5030140;28;20581;-82
2023/12/14 08:26:03;;;;;;;20.95;18.85;;;4.50;99.90;;;;;;5014068;28;20546;-81
2023/12/14 08:28:28;;;;;;;20.38;18.38;;;4.40;99.90;;;;;;5013787;28;20099;-82
2023/12/14 08:30:54;;;;;;;19.95;18.05;;;4.50;99.90;;;;;;5012208;28;20084;-81
2023/12/14 08:33:19;;;;;;;19.17;17.27;;;4.50;99.90;;;;;;5027948;28;20033;-82
2023/12/14 08:35:45;;;;;;;20.35;18.23;;;4.50;99.90;;;;;;5011950;28;20041;-82
2023/12/14 08:38:11;;;;;;;19.55;17.55;;;4.50;99.90;;;;;;5013583;28;20136;-82
2023/12/14 08:40:37;;;;;;;21.75;19.60;;;4.50;99.90;;;;;;5019525;28;20048;-82
2023/12/14 08:43:03;;;;;;;18.90;17.00;;;4.50;99.90;;;;;;5013715;28;20380;-82
2023/12/14 08:45:29;;;;;;;18.95;17.15;;;4.50;99.90;;;;;;5026839;28;20511;-82
2023/12/14 08:47:54;;;;;;;19.10;17.10;;;4.50;99.90;;;;;;5013354;28;20073;-82
2023/12/14 08:50:20;;;;;;;18.02;16.25;;;4.50;99.90;;;;;;5031261;28;20068;-82
2023/12/14 08:52:46;;;;;;;19.55;17.52;;;4.50;99.90;;;;;;5017106;28;20072;-82
2023/12/14 08:55:13;;;;;;;17.75;16.15;;;4.50;99.90;;;;;;5032350;28;20064;-82
2023/12/14 08:57:38;;;;;;;18.73;16.55;;;4.50;99.90;;;;;;5009984;28;20091;-82
2023/12/14 09:00:06;;;;;;;19.25;17.25;;;4.50;99.90;;;;;;5016944;28;20041;-82
2023/12/14 09:02:32;;;;;;;22.40;20.20;;;4.60;99.90;;;;;;5033505;28;20522;-82
2023/12/14 09:04:57;;;;;;;17.88;16.05;;;4.60;99.90;;;;;;5033203;28;20041;-82
2023/12/14 09:07:23;;;;;;;19.65;17.75;;;4.60;99.90;;;;;;5016900;28;20033;-82
2023/12/14 09:09:48;;;;;;;20.90;17.67;;;4.60;99.90;;;;;;5033198;28;20041;-82
2023/12/14 09:12:14;;;;;;;18.00;16.33;;;4.60;99.90;;;;;;5025873;28;20064;-82
2023/12/14 09:14:39;;;;;;;20.42;17.98;;;4.60;99.90;;;;;;5026159;28;20037;-82
2023/12/14 09:17:05;;;;;;;22.05;18.30;;;4.70;99.90;;;;;;5033209;28;20112;-82
2023/12/14 09:19:33;;;;;;;20.38;18.20;;;4.70;99.90;;;;;;5033387;28;20240;-82
2023/12/14 09:21:59;;;;;;;19.45;17.13;;;4.80;99.90;;;;;;5002479;28;20041;-81
2023/12/14 09:24:25;;;;;;;21.63;17.80;;;4.80;99.90;;;;;;5000020;28;20038;-82
2023/12/14 09:26:50;;;;;;;19.30;17.30;;;4.90;99.90;;;;;;5016113;28;20045;-82
2023/12/14 09:29:16;;;;;;;20.65;17.20;;;4.90;99.90;;;;;;5026943;28;20037;-82
2023/12/14 09:31:43;;;;;;;21.45;18.35;;;4.90;99.90;;;;;;5032991;28;20080;-82
2023/12/14 09:34:10;;;;;;;20.38;18.25;;;5.00;99.90;;;;;;5032892;28;20042;-82
2023/12/14 09:36:35;;;;;;;23.92;19.65;;;4.90;99.90;;;;;;5027201;28;20037;-82
2023/12/14 09:39:01;;;;;;;23.60;18.70;;;4.90;99.90;;;;;;5016155;28;20549;-82
2023/12/14 09:41:27;;;;;;;23.15;18.35;;;4.90;99.90;;;;;;5032741;28;20045;-81
2023/12/14 09:43:52;;;;;;;19.83;17.20;;;4.90;99.90;;;;;;5018900;28;20108;-82
2023/12/14 09:46:19;;;;;;;18.98;16.92;;;5.00;99.90;;;;;;5027585;28;20510;-82
2023/12/14 09:48:47;;;;;;;20.35;17.50;;;4.90;99.90;;;;;;5026854;28;20033;-82
2023/12/14 09:51:13;;;;;;;20.20;17.13;;;4.90;99.90;;;;;;5011878;28;20034;-82
2023/12/14 09:53:38;;;;;;;24.00;19.77;;;5.00;99.90;;;;;;5031025;28;20377;-82
2023/12/14 09:56:04;;;;;;;23.55;20.20;;;5.00;99.90;;;;;;5030316;28;20029;-82
2023/12/14 09:58:34;;;;;;;24.63;18.90;;;5.00;99.90;;;;;;5015888;28;20045;-82
2023/12/14 10:01:04;;;;;;;21.63;18.38;;;5.00;99.90;;;;;;5029213;28;20037;-82
2023/12/14 10:03:31;;;;;;;22.45;17.40;;;5.00;99.90;;;;;;5007272;28;20041;-82
2023/12/14 10:05:59;;;;;;;21.88;18.58;;;5.10;99.90;;;;;;5007614;28;20541;-82
2023/12/14 10:08:26;;;;;;;22.52;19.13;;;5.10;99.90;;;;;;5032350;28;20395;-82
2023/12/14 10:10:55;;;;;;;22.08;18.92;;;5.10;99.90;;;;;;5015625;28;20079;-82
2023/12/14 10:13:37;;;;;;;22.08;18.95;;;5.20;99.90;;;;;;5031877;28;20047;-82
2023/12/14 10:16:03;;;;;;;20.33;17.83;;;5.20;99.90;;;;;;5020980;28;20037;-82
2023/12/14 10:18:31;;;;;;;21.17;18.38;;;5.30;99.90;;;;;;5028073;28;20037;-82
2023/12/14 10:20:56;;;;;;;24.05;18.60;;;5.30;99.90;;;;;;5031626;28;20377;-82
2023/12/14 10:23:22;;;;;;;24.92;20.63;;;5.30;99.90;;;;;;5026871;28;20091;-82
2023/12/14 10:25:48;;;;;;;25.20;19.88;;;5.40;99.90;;;;;;5032073;28;20491;-82
2023/12/14 10:28:14;;;;;;;22.33;19.90;;;5.40;99.90;;;;;;5022532;28;20040;-82
2023/12/14 10:30:40;;;;;;;27.52;21.17;;;5.40;99.90;;;;;;5030959;28;20124;-82
2023/12/14 10:33:06;;;;;;;22.23;18.67;;;5.40;99.90;;;;;;5023834;28;20506;-82
2023/12/14 10:35:31;;;;;;;20.20;18.00;;;5.50;99.90;;;;;;5028005;28;20063;-82
2023/12/14 10:38:02;;;;;;;20.52;17.58;;;5.50;99.90;;;;;;5031864;28;20033;-82
2023/12/14 10:40:28;;;;;;;20.20;17.85;;;5.60;99.90;;;;;;5031734;28;20504;-82
2023/12/14 10:42:58;;;;;;;22.33;19.98;;;5.60;99.90;;;;;;5015126;28;20049;-82
2023/12/14 10:45:29;;;;;;;23.38;20.88;;;5.60;99.90;;;;;;5015125;28;20071;-82
2023/12/14 10:47:58;;;;;;;23.70;19.92;;;5.70;99.90;;;;;;5000617;28;20033;-82
2023/12/14 10:50:24;;;;;;;22.15;19.85;;;5.70;99.90;;;;;;5004597;28;20042;-82
2023/12/14 10:52:50;;;;;;;22.00;19.10;;;5.80;99.90;;;;;;5031232;28;20038;-82
2023/12/14 10:55:25;;;;;;;22.85;19.83;;;5.90;99.90;;;;;;5031092;28;20040;-82
2023/12/14 10:57:53;;;;;;;23.00;20.50;;;6.00;99.90;;;;;;5014975;28;20041;-82
2023/12/14 11:00:18;;;;;;;21.63;17.58;;;6.10;99.90;;;;;;5031186;28;20059;-82
2023/12/14 11:02:47;;;;;;;19.42;17.30;;;6.20;99.90;;;;;;5026562;28;20496;-82
2023/12/14 11:05:16;;;;;;;21.25;19.08;;;6.30;99.90;;;;;;5024580;28;20044;-82
2023/12/14 11:07:57;;;;;;;21.23;17.25;;;6.40;99.90;;;;;;5028577;28;20048;-82
2023/12/14 11:10:26;;;;;;;17.95;16.00;;;6.50;99.90;;;;;;5014658;28;20038;-82
2023/12/14 11:13:02;;;;;;;17.58;15.68;;;6.50;99.90;;;;;;5030922;28;20084;-82
2023/12/14 11:15:33;;;;;;;19.17;17.27;;;6.60;99.90;;;;;;5014673;28;20041;-82
2023/12/14 11:18:08;;;;;;;19.25;17.25;;;6.60;99.90;;;;;;4996091;28;20036;-82
2023/12/14 11:20:46;;;;;;;21.13;18.88;;;6.70;99.90;;;;;;5030771;28;20037;-83
2023/12/14 11:23:38;;;;;;;18.23;16.35;;;6.70;99.90;;;;;;5014463;28;20057;-82
2023/12/14 11:26:08;;;;;;;19.85;17.95;;;6.80;99.90;;;;;;5029441;28;20053;-82
2023/12/14 11:28:36;;;;;;;18.17;16.48;;;6.80;99.90;;;;;;5030732;28;20510;-82
2023/12/14 11:31:06;;;;;;;17.50;15.75;;;6.80;99.90;;;;;;5013087;28;20056;-82
2023/12/14 11:33:35;;;;;;;16.08;14.50;;;6.80;99.90;;;;;;5026866;28;20041;-82
2023/12/14 11:36:05;;;;;;;17.63;15.82;;;6.80;99.90;;;;;;4994695;28;20041;-82
2023/12/14 11:38:32;;;;;;;18.73;16.80;;;6.80;99.90;;;;;;4994675;28;20049;-82
2023/12/14 11:41:01;;;;;;;17.10;15.50;;;6.90;99.90;;;;;;4984671;28;20060;-84
2023/12/14 11:43:27;;;;;;;17.65;15.95;;;7.00;99.90;;;;;;5030485;28;20041;-84
2023/12/14 11:45:55;;;;;;;18.88;15.50;;;7.00;99.90;;;;;;5031079;28;20103;-84
2023/12/14 11:48:21;;;;;;;18.13;16.23;;;7.00;99.90;;;;;;5009493;28;20065;-82
2023/12/14 11:50:47;;;;;;;20.35;18.27;;;7.00;99.90;;;;;;5027395;28;20091;-82
2023/12/14 11:53:13;;;;;;;19.73;17.80;;;7.00;99.90;;;;;;5030281;28;20041;-82
2023/12/14 11:55:40;;;;;;;19.25;17.02;;;7.00;99.90;;;;;;5030648;28;20124;-82
2023/12/14 11:58:07;;;;;;;19.55;17.75;;;7.00;99.90;;;;;;5030616;28;20460;-82
2023/12/14 12:00:35;;;;;;;18.35;16.55;;;7.10;99.90;;;;;;5015042;28;20091;-83
2023/12/14 12:03:15;;;;;;;18.15;16.45;;;7.10;99.90;;;;;;5004969;28;20128;-82
2023/12/14 12:05:42;;;;;;;17.00;15.45;;;7.10;99.90;;;;;;5025972;28;20055;-83
2023/12/14 12:08:09;;;;;;;16.30;14.63;;;7.10;99.90;;;;;;5014323;28;20037;-83
2023/12/14 12:10:35;;;;;;;18.30;16.40;;;7.10;99.90;;;;;;5013871;28;20041;-82
2023/12/14 12:13:07;;;;;;;16.63;15.05;;;7.20;99.90;;;;;;5014099;28;20072;-82
2023/12/14 12:15:35;;;;;;;19.52;17.50;;;7.20;99.90;;;;;;5014062;28;20456;-82
2023/12/14 12:18:04;;;;;;;20.83;18.60;;;7.20;99.90;;;;;;5006844;28;20048;-83
2023/12/14 12:20:29;;;;;;;19.42;17.42;;;7.30;99.90;;;;;;5024390;28;20091;-83
2023/12/14 12:22:55;;;;;;;20.42;18.35;;;7.30;99.90;;;;;;5009148;28;20128;-82
2023/12/14 12:25:21;;;;;;;20.15;18.02;;;7.30;99.90;;;;;;5015260;28;20041;-82
2023/12/14 12:27:47;;;;;;;19.23;17.17;;;7.30;99.90;;;;;;5017984;28;20103;-82
2023/12/14 12:30:12;;;;;;;19.55;17.67;;;7.30;99.90;;;;;;5001222;28;20077;-82
2023/12/14 12:32:39;;;;;;;16.95;15.25;;;7.20;99.90;;;;;;5017660;28;20134;-82